Time;durP1;ratioP1;P1;durP2;ratioP2;P2;SDS_P1;SDS_P2;PMS_P1;PMS_P2;Temp;Humidity;BMP_temperature;BMP_pressure;BME280_temperature;BME280_humidity;BME280_pressure;Samples;Min_cycle;Max_cycle;Signal;HPM_P1;HPM_P2
2021/11/18 00:01:17;;;;;;;0.90;0.90;;;9.80;85.70;;;;;;5087780;28;20632;-69
2021/11/18 00:03:48;;;;;;;3.00;1.67;;;9.80;85.70;;;;;;5089851;28;20212;-67
2021/11/18 00:06:21;;;;;;;0.75;0.70;;;9.70;84.80;;;;;;5078406;28;20709;-68
2021/11/18 00:08:52;;;;;;;1.02;0.95;;;9.70;85.80;;;;;;5102130;28;20209;-68
2021/11/18 00:11:24;;;;;;;1.35;1.00;;;9.70;85.00;;;;;;5080210;28;20298;-68
2021/11/18 00:13:57;;;;;;;0.85;0.77;;;9.60;85.60;;;;;;5089793;28;20224;-68
2021/11/18 00:16:28;;;;;;;0.70;0.70;;;9.60;84.30;;;;;;5091106;28;20314;-69
2021/11/18 00:18:59;;;;;;;1.02;0.63;;;9.60;84.20;;;;;;5102780;28;20704;-68
2021/11/18 00:21:33;;;;;;;1.20;0.90;;;9.60;86.40;;;;;;5092195;28;20208;-70
2021/11/18 00:24:05;;;;;;;1.13;1.00;;;9.60;84.20;;;;;;5101273;28;20207;-67
2021/11/18 00:26:36;;;;;;;3.55;1.17;;;9.60;85.10;;;;;;5104492;28;20643;-70
2021/11/18 00:29:08;;;;;;;0.90;0.90;;;9.50;84.70;;;;;;5084469;28;20215;-70
2021/11/18 00:31:41;;;;;;;1.30;1.20;;;9.50;85.50;;;;;;5093327;28;20212;-70
2021/11/18 00:34:14;;;;;;;1.42;1.20;;;9.40;84.90;;;;;;5094112;28;20235;-70
2021/11/18 00:36:47;;;;;;;2.17;1.10;;;9.50;85.30;;;;;;5102214;28;20222;-70
2021/11/18 00:39:19;;;;;;;1.33;0.93;;;9.50;86.00;;;;;;5105645;28;20220;-70
2021/11/18 00:41:50;;;;;;;1.05;0.95;;;9.40;85.90;;;;;;5103711;28;20207;-70
2021/11/18 00:44:21;;;;;;;1.10;1.00;;;9.40;86.10;;;;;;5097567;28;20250;-69
2021/11/18 00:46:53;;;;;;;1.60;1.20;;;9.30;85.70;;;;;;5090805;28;20686;-68
2021/11/18 00:49:24;;;;;;;1.45;1.13;;;9.30;86.70;;;;;;5086659;28;20212;-68
2021/11/18 00:51:57;;;;;;;1.13;1.00;;;9.20;87.10;;;;;;5095965;28;20217;-68
2021/11/18 00:54:28;;;;;;;2.28;0.80;;;9.20;87.30;;;;;;5099902;28;20658;-69
2021/11/18 00:56:58;;;;;;;4.35;1.10;;;9.10;87.80;;;;;;5090699;28;20296;-68
2021/11/18 00:59:30;;;;;;;3.17;1.10;;;9.10;88.50;;;;;;5106959;28;20220;-68
2021/11/18 01:02:01;;;;;;;1.30;1.20;;;9.10;87.50;;;;;;5100299;28;20231;-68
2021/11/18 01:04:32;;;;;;;1.58;1.42;;;9.10;88.40;;;;;;5096682;28;20827;-68
2021/11/18 01:07:05;;;;;;;1.52;1.08;;;9.10;88.10;;;;;;5090462;28;20643;-68
2021/11/18 01:09:36;;;;;;;2.85;1.20;;;9.00;87.80;;;;;;5087467;28;20218;-69
2021/11/18 01:12:09;;;;;;;1.60;1.40;;;9.00;88.30;;;;;;5099924;28;20219;-69
2021/11/18 01:14:43;;;;;;;1.15;0.95;;;9.00;89.20;;;;;;5093751;28;20215;-69
2021/11/18 01:17:23;;;;;;;1.33;1.20;;;9.00;88.90;;;;;;5086396;28;20747;-69
2021/11/18 01:19:55;;;;;;;1.00;0.90;;;9.00;88.50;;;;;;5081868;28;20277;-69
2021/11/18 01:25:43;;;;;;;2.08;1.15;;;9.00;87.90;;;;;;5082469;28;20598;-70
2021/11/18 01:28:17;;;;;;;1.52;1.15;;;9.10;89.20;;;;;;5102322;28;20632;-69
2021/11/18 01:31:00;;;;;;;3.53;1.00;;;9.10;88.20;;;;;;5094450;28;20217;-69
2021/11/18 01:33:35;;;;;;;1.25;0.70;;;9.10;87.60;;;;;;5080339;28;20700;-70
2021/11/18 01:36:23;;;;;;;0.90;0.90;;;9.00;88.60;;;;;;5099539;28;20673;-70
2021/11/18 01:38:58;;;;;;;1.90;1.20;;;9.00;87.80;;;;;;5088586;28;20511;-70
2021/11/18 01:41:33;;;;;;;1.35;1.10;;;9.00;88.10;;;;;;5095949;28;20298;-69
2021/11/18 01:44:14;;;;;;;2.30;0.90;;;8.90;88.60;;;;;;5100422;28;20242;-70
2021/11/18 01:46:49;;;;;;;1.13;1.00;;;9.00;86.30;;;;;;5098195;28;20299;-70
2021/11/18 01:49:41;;;;;;;1.30;1.23;;;9.00;87.00;;;;;;5094353;28;20223;-70
2021/11/18 01:52:14;;;;;;;1.35;0.88;;;9.00;87.10;;;;;;5084291;28;20648;-70
2021/11/18 01:54:53;;;;;;;0.80;0.80;;;9.00;87.60;;;;;;5089813;28;20221;-69
2021/11/18 01:57:32;;;;;;;0.90;0.90;;;9.00;86.90;;;;;;5085738;28;20231;-70
2021/11/18 02:00:05;;;;;;;0.80;0.73;;;9.00;86.90;;;;;;5089864;28;20636;-70
2021/11/18 02:02:36;;;;;;;1.08;0.90;;;9.00;86.90;;;;;;5087375;28;20215;-70
2021/11/18 02:05:14;;;;;;;1.48;0.95;;;9.00;86.40;;;;;;5087137;28;20220;-71
2021/11/18 02:07:51;;;;;;;1.60;1.23;;;9.00;86.50;;;;;;5082188;28;20303;-69
2021/11/18 02:10:27;;;;;;;1.10;1.00;;;8.90;86.50;;;;;;5085892;28;20583;-69
2021/11/18 02:13:00;;;;;;;1.35;1.00;;;9.00;87.10;;;;;;5089787;28;20204;-70
2021/11/18 02:15:33;;;;;;;1.35;0.98;;;8.90;87.10;;;;;;5087598;28;20311;-68
2021/11/18 02:18:12;;;;;;;0.90;0.75;;;9.00;86.50;;;;;;5093466;28;20692;-70
2021/11/18 02:20:48;;;;;;;1.58;1.10;;;9.00;86.50;;;;;;5097292;28;20248;-69
2021/11/18 02:23:24;;;;;;;1.50;0.85;;;8.90;86.60;;;;;;5089875;28;20212;-69
2021/11/18 02:25:56;;;;;;;1.38;1.00;;;9.00;87.40;;;;;;5082928;28;20649;-69
2021/11/18 02:28:31;;;;;;;3.00;1.20;;;9.00;85.90;;;;;;5099801;28;20239;-69
2021/11/18 02:31:03;;;;;;;0.95;0.90;;;9.00;86.20;;;;;;5091911;28;20224;-69
2021/11/18 02:33:34;;;;;;;1.05;0.95;;;8.90;85.90;;;;;;5103857;28;20225;-69
2021/11/18 02:36:06;;;;;;;2.78;1.20;;;9.00;86.00;;;;;;5092730;27;20250;-69
2021/11/18 02:38:37;;;;;;;1.60;0.90;;;9.00;86.30;;;;;;5093088;28;21199;-69
2021/11/18 02:41:10;;;;;;;3.63;1.02;;;9.00;85.80;;;;;;5100393;28;20477;-68
2021/11/18 02:43:44;;;;;;;1.10;1.00;;;9.00;85.60;;;;;;5084776;28;20251;-69
2021/11/18 02:46:18;;;;;;;0.90;0.90;;;9.00;85.80;;;;;;5097688;28;20295;-69
2021/11/18 02:48:55;;;;;;;3.72;1.08;;;9.00;85.30;;;;;;5100505;28;20589;-70
2021/11/18 02:51:30;;;;;;;0.80;0.80;;;9.00;85.70;;;;;;5090702;28;20585;-69
2021/11/18 02:54:04;;;;;;;0.95;0.95;;;9.10;84.90;;;;;;5092873;28;20224;-69
2021/11/18 02:56:36;;;;;;;1.60;1.13;;;9.10;85.90;;;;;;5109374;28;20697;-70
2021/11/18 02:59:07;;;;;;;0.80;0.80;;;9.00;85.30;;;;;;5101326;28;20268;-70
2021/11/18 03:01:46;;;;;;;0.80;0.80;;;9.10;85.60;;;;;;5092581;28;20217;-69
2021/11/18 03:04:20;;;;;;;1.35;0.80;;;9.00;85.30;;;;;;5104476;28;20216;-69
2021/11/18 03:06:59;;;;;;;1.40;0.80;;;9.00;86.60;;;;;;5100402;28;20236;-69
2021/11/18 03:09:33;;;;;;;0.88;0.70;;;9.10;85.60;;;;;;5100551;28;20693;-69
2021/11/18 03:12:18;;;;;;;1.60;1.50;;;9.10;84.60;;;;;;5101655;28;20624;-69
2021/11/18 03:14:49;;;;;;;1.27;1.17;;;9.00;85.50;;;;;;5099963;28;20247;-69
2021/11/18 03:17:23;;;;;;;1.30;1.15;;;9.00;85.50;;;;;;5099462;28;20212;-69
2021/11/18 03:19:56;;;;;;;1.10;0.95;;;9.00;86.10;;;;;;5091937;28;20231;-69
2021/11/18 03:22:31;;;;;;;1.48;1.10;;;9.00;85.20;;;;;;5102741;28;20241;-69
2021/11/18 03:25:02;;;;;;;1.20;1.10;;;9.00;85.30;;;;;;5094409;28;20243;-70
2021/11/18 03:27:42;;;;;;;2.25;0.90;;;9.00;86.20;;;;;;5107415;28;20231;-70
2021/11/18 03:30:15;;;;;;;1.55;0.65;;;9.00;85.50;;;;;;5100116;28;20691;-70
2021/11/18 03:32:47;;;;;;;1.40;0.80;;;9.00;86.20;;;;;;5080157;28;20215;-70
2021/11/18 03:35:19;;;;;;;1.30;1.20;;;9.00;86.00;;;;;;5097689;28;20224;-68
2021/11/18 03:38:02;;;;;;;3.05;1.00;;;9.00;86.60;;;;;;5095937;28;20207;-69
2021/11/18 03:40:39;;;;;;;1.20;1.10;;;9.00;85.90;;;;;;5094846;28;20216;-69
2021/11/18 03:43:15;;;;;;;1.48;0.80;;;9.00;87.10;;;;;;5077213;28;20219;-70
2021/11/18 03:45:52;;;;;;;1.50;1.10;;;9.00;86.60;;;;;;5091621;28;20286;-70
2021/11/18 03:48:23;;;;;;;1.23;0.98;;;9.00;86.20;;;;;;5100807;28;20215;-69
2021/11/18 03:50:57;;;;;;;1.98;1.27;;;9.00;87.30;;;;;;5111338;28;20212;-69
2021/11/18 03:53:34;;;;;;;1.00;0.88;;;9.00;87.30;;;;;;5093421;28;20211;-69
2021/11/18 03:56:09;;;;;;;1.77;1.20;;;9.00;88.30;;;;;;5093199;28;20214;-69
2021/11/18 03:58:43;;;;;;;1.67;1.05;;;8.90;88.40;;;;;;5096598;28;20250;-70
2021/11/18 04:01:16;;;;;;;1.30;0.98;;;9.00;88.60;;;;;;5105826;28;20318;-69
2021/11/18 04:03:52;;;;;;;0.90;0.70;;;9.00;88.80;;;;;;5112009;28;20798;-69
2021/11/18 04:06:27;;;;;;;2.17;1.17;;;8.90;89.60;;;;;;5091493;28;20614;-69
2021/11/18 04:09:02;;;;;;;2.30;1.25;;;8.90;89.80;;;;;;5094935;28;20222;-70
2021/11/18 04:11:34;;;;;;;1.67;1.08;;;8.90;89.40;;;;;;5091252;28;20223;-69
2021/11/18 04:14:11;;;;;;;0.95;0.93;;;8.90;89.90;;;;;;5104636;28;20312;-69
2021/11/18 04:16:46;;;;;;;1.50;1.00;;;8.80;90.10;;;;;;5099398;28;20216;-70
2021/11/18 04:19:23;;;;;;;0.98;0.80;;;8.80;90.70;;;;;;5094491;28;20277;-69
2021/11/18 04:22:01;;;;;;;1.00;0.90;;;8.80;90.40;;;;;;5104854;28;20215;-69
2021/11/18 04:24:44;;;;;;;1.42;1.33;;;8.70;90.60;;;;;;5088379;28;20303;-69
2021/11/18 04:27:21;;;;;;;3.17;1.10;;;8.70;90.60;;;;;;5090930;28;20332;-72
2021/11/18 04:29:54;;;;;;;0.98;0.88;;;8.60;90.70;;;;;;5101057;28;20215;-70
2021/11/18 04:32:30;;;;;;;0.90;0.90;;;8.60;91.10;;;;;;5087662;28;20223;-69
2021/11/18 04:35:04;;;;;;;1.13;1.00;;;8.50;91.60;;;;;;5097962;28;20332;-70
2021/11/18 04:37:37;;;;;;;1.10;0.90;;;8.50;91.20;;;;;;5089991;28;21449;-68
2021/11/18 04:40:11;;;;;;;0.90;0.85;;;8.40;91.30;;;;;;5089154;28;20220;-69
2021/11/18 04:42:43;;;;;;;1.70;1.30;;;8.40;91.30;;;;;;5087210;28;20222;-70
2021/11/18 04:45:16;;;;;;;1.27;1.10;;;8.40;91.70;;;;;;5088746;28;20230;-67
2021/11/18 04:47:47;;;;;;;0.90;0.90;;;8.40;91.80;;;;;;5102637;28;20219;-67
2021/11/18 04:50:18;;;;;;;1.38;1.10;;;8.50;91.50;;;;;;5094140;28;20216;-68
2021/11/18 04:52:50;;;;;;;0.90;0.90;;;8.50;91.40;;;;;;5089381;28;20215;-68
2021/11/18 04:55:24;;;;;;;1.23;0.90;;;8.50;92.00;;;;;;5088749;28;20702;-68
2021/11/18 04:57:56;;;;;;;2.30;1.05;;;8.60;91.60;;;;;;5111172;28;20221;-68
2021/11/18 05:00:29;;;;;;;1.95;1.20;;;8.60;91.30;;;;;;5097010;28;20209;-68
2021/11/18 05:03:00;;;;;;;1.75;1.10;;;8.70;91.80;;;;;;5115475;28;20220;-68
2021/11/18 05:05:31;;;;;;;1.00;1.00;;;8.70;91.20;;;;;;5094272;28;20219;-69
2021/11/18 05:08:03;;;;;;;2.10;0.90;;;8.70;91.70;;;;;;5090662;28;20216;-68
2021/11/18 05:10:37;;;;;;;2.30;1.23;;;8.70;91.40;;;;;;5086687;28;20235;-68
2021/11/18 05:13:08;;;;;;;0.98;0.98;;;8.70;91.30;;;;;;5090477;28;20208;-68
2021/11/18 05:15:40;;;;;;;1.08;1.02;;;8.60;91.70;;;;;;5088473;28;20236;-68
2021/11/18 05:18:12;;;;;;;2.05;1.45;;;8.60;91.30;;;;;;5090314;28;20662;-68
2021/11/18 05:20:44;;;;;;;1.00;1.00;;;8.70;91.60;;;;;;5099854;28;20227;-68
2021/11/18 05:23:16;;;;;;;1.25;1.02;;;8.60;91.50;;;;;;5090325;28;20291;-68
2021/11/18 05:25:48;;;;;;;0.93;0.90;;;8.70;91.50;;;;;;5102825;28;20208;-68
2021/11/18 05:28:19;;;;;;;1.75;1.05;;;8.60;91.50;;;;;;5101937;28;20243;-68
2021/11/18 05:30:50;;;;;;;2.70;1.02;;;8.60;91.70;;;;;;5101354;28;20215;-68
2021/11/18 05:33:24;;;;;;;1.05;0.90;;;8.60;91.40;;;;;;5087124;28;20216;-68
2021/11/18 05:35:55;;;;;;;1.02;0.93;;;8.60;91.60;;;;;;5092858;28;20225;-68
2021/11/18 05:38:26;;;;;;;1.50;1.30;;;8.50;92.20;;;;;;5101212;28;20227;-68
2021/11/18 05:40:59;;;;;;;1.33;1.30;;;8.50;92.20;;;;;;5086851;28;20208;-68
2021/11/18 05:43:32;;;;;;;1.67;0.95;;;8.50;92.10;;;;;;5096912;28;20312;-67
2021/11/18 05:46:04;;;;;;;0.82;0.82;;;8.50;91.80;;;;;;5099729;28;20208;-68
2021/11/18 05:48:35;;;;;;;1.30;1.20;;;8.60;91.90;;;;;;5101123;28;20219;-68
2021/11/18 05:51:07;;;;;;;1.75;1.10;;;8.60;92.00;;;;;;5092192;28;20231;-68
2021/11/18 05:53:40;;;;;;;1.00;0.90;;;8.60;92.30;;;;;;5093508;28;20659;-68
2021/11/18 05:56:15;;;;;;;1.10;0.82;;;8.50;91.90;;;;;;5088120;28;20223;-68
2021/11/18 05:58:48;;;;;;;1.20;0.88;;;8.50;91.90;;;;;;5094324;28;20674;-68
2021/11/18 06:01:20;;;;;;;1.50;1.00;;;8.60;91.90;;;;;;5096501;28;20212;-70
2021/11/18 06:03:51;;;;;;;4.53;2.97;;;8.50;91.90;;;;;;5100089;28;20245;-69
2021/11/18 06:06:27;;;;;;;1.45;0.90;;;8.60;92.00;;;;;;5082572;28;20208;-68
2021/11/18 06:09:02;;;;;;;1.88;1.00;;;8.50;92.10;;;;;;5090167;28;20700;-68
2021/11/18 06:11:37;;;;;;;1.00;0.88;;;8.50;92.00;;;;;;5093325;28;20678;-68
2021/11/18 06:14:08;;;;;;;1.45;1.20;;;8.50;92.20;;;;;;5087007;28;20208;-67
2021/11/18 06:16:39;;;;;;;0.93;0.90;;;8.50;92.40;;;;;;5093333;28;20243;-68
2021/11/18 06:19:12;;;;;;;4.38;1.00;;;8.50;92.40;;;;;;5091893;28;20221;-70
2021/11/18 06:21:54;;;;;;;1.60;0.85;;;8.50;92.30;;;;;;5092554;28;20627;-68
2021/11/18 06:24:26;;;;;;;2.72;0.90;;;8.50;92.20;;;;;;5089511;28;20216;-69
2021/11/18 06:26:59;;;;;;;1.05;0.95;;;8.50;92.00;;;;;;5093577;28;20233;-69
2021/11/18 06:29:30;;;;;;;0.75;0.73;;;8.50;92.20;;;;;;5089816;28;20212;-69
2021/11/18 06:32:04;;;;;;;1.02;0.93;;;8.50;91.60;;;;;;5093463;28;20300;-69
2021/11/18 06:34:36;;;;;;;2.35;1.50;;;8.50;92.30;;;;;;5089761;28;20248;-69
2021/11/18 06:37:07;;;;;;;1.42;1.00;;;8.50;92.30;;;;;;5108448;28;20267;-69
2021/11/18 06:39:38;;;;;;;1.17;1.00;;;8.50;92.10;;;;;;5090639;28;20219;-69
2021/11/18 06:42:12;;;;;;;1.38;0.90;;;8.50;92.30;;;;;;5082011;28;20347;-68
2021/11/18 06:44:43;;;;;;;0.90;0.90;;;8.50;91.90;;;;;;5083030;28;20215;-68
2021/11/18 06:47:14;;;;;;;1.30;1.20;;;8.50;91.90;;;;;;5104413;28;20220;-68
2021/11/18 06:49:45;;;;;;;1.75;0.90;;;8.60;92.10;;;;;;5092326;28;20342;-69
2021/11/18 06:52:17;;;;;;;2.08;0.90;;;8.50;92.00;;;;;;5091290;28;20209;-68
2021/11/18 06:54:49;;;;;;;1.00;0.88;;;8.50;91.90;;;;;;5095596;28;20309;-69
2021/11/18 06:57:22;;;;;;;0.95;0.85;;;8.50;92.00;;;;;;5089555;28;20229;-68
2021/11/18 06:59:54;;;;;;;0.90;0.80;;;8.50;91.90;;;;;;5091087;28;20214;-69
2021/11/18 07:02:26;;;;;;;0.95;0.95;;;8.40;92.10;;;;;;5092831;28;20216;-68
2021/11/18 07:04:57;;;;;;;1.92;1.10;;;8.40;92.60;;;;;;5090544;28;20216;-69
2021/11/18 07:07:28;;;;;;;0.80;0.80;;;8.40;92.20;;;;;;5090642;28;20219;-69
2021/11/18 07:10:18;;;;;;;1.75;0.90;;;8.40;92.40;;;;;;5089104;28;20556;-68
2021/11/18 07:12:52;;;;;;;1.33;1.10;;;8.50;92.50;;;;;;5092783;28;20534;-69
2021/11/18 07:15:24;;;;;;;1.45;1.05;;;8.50;92.40;;;;;;5092182;28;20577;-68
2021/11/18 07:17:56;;;;;;;1.42;1.20;;;8.50;92.10;;;;;;5094060;28;20216;-68
2021/11/18 07:20:28;;;;;;;1.05;1.00;;;8.50;92.00;;;;;;5079534;28;20303;-69
2021/11/18 07:23:03;;;;;;;1.05;0.90;;;8.50;92.00;;;;;;5100851;28;20265;-69
2021/11/18 07:25:34;;;;;;;0.95;0.95;;;8.50;91.80;;;;;;5090340;28;20234;-69
2021/11/18 07:28:07;;;;;;;0.90;0.90;;;8.60;91.90;;;;;;5098577;28;20231;-69
2021/11/18 07:30:38;;;;;;;1.15;0.90;;;8.60;92.20;;;;;;5101116;28;20220;-69
2021/11/18 07:33:09;;;;;;;0.93;0.90;;;8.60;92.40;;;;;;5105331;28;20204;-69
2021/11/18 07:35:40;;;;;;;1.48;0.70;;;8.50;92.20;;;;;;5100887;28;20311;-69
2021/11/18 07:38:11;;;;;;;0.98;0.95;;;8.50;91.80;;;;;;5099454;28;20219;-69
2021/11/18 07:40:42;;;;;;;1.58;0.85;;;8.50;91.70;;;;;;5095457;28;20226;-69
2021/11/18 07:43:18;;;;;;;1.83;1.20;;;8.50;92.60;;;;;;5084336;28;20266;-68
2021/11/18 07:45:50;;;;;;;1.60;1.00;;;8.50;91.90;;;;;;5088902;28;20263;-68
2021/11/18 07:48:21;;;;;;;1.35;1.00;;;8.50;92.00;;;;;;5105837;28;20212;-68
2021/11/18 07:50:51;;;;;;;1.35;0.85;;;8.50;92.00;;;;;;5098231;28;20212;-69
2021/11/18 07:53:22;;;;;;;1.13;1.02;;;8.50;92.00;;;;;;5091758;28;20709;-69
2021/11/18 07:55:54;;;;;;;1.00;0.90;;;8.50;91.90;;;;;;5089643;28;20216;-69
2021/11/18 07:58:26;;;;;;;1.20;1.10;;;8.50;92.40;;;;;;5099343;28;20732;-69
2021/11/18 08:00:57;;;;;;;0.93;0.88;;;8.50;92.10;;;;;;5095862;28;20410;-69
2021/11/18 08:03:30;;;;;;;0.80;0.68;;;8.50;92.00;;;;;;5091823;28;20208;-69
2021/11/18 08:06:02;;;;;;;0.98;0.90;;;8.50;92.20;;;;;;5094956;28;20211;-69
2021/11/18 08:08:33;;;;;;;2.40;1.10;;;8.50;92.40;;;;;;5101345;28;20212;-68
2021/11/18 08:11:04;;;;;;;2.20;1.05;;;8.50;92.00;;;;;;5103402;28;20212;-69
2021/11/18 08:13:36;;;;;;;1.08;1.00;;;8.50;92.10;;;;;;5100873;28;20220;-68
2021/11/18 08:16:08;;;;;;;1.40;1.10;;;8.50;91.60;;;;;;5098193;28;20215;-69
2021/11/18 08:18:39;;;;;;;1.42;1.33;;;8.50;92.00;;;;;;5101984;28;20212;-69
2021/11/18 08:21:10;;;;;;;1.60;1.10;;;8.40;92.40;;;;;;5098031;28;20215;-69
2021/11/18 08:23:41;;;;;;;1.67;1.30;;;8.50;91.80;;;;;;5091097;28;20212;-69
2021/11/18 08:26:15;;;;;;;2.35;1.30;;;8.50;91.80;;;;;;5088799;28;20309;-69
2021/11/18 08:28:47;;;;;;;1.55;0.70;;;8.50;91.70;;;;;;5091012;28;20286;-68
2021/11/18 08:31:19;;;;;;;0.90;0.75;;;8.50;91.80;;;;;;5086145;28;20251;-69
2021/11/18 08:33:50;;;;;;;1.40;0.88;;;8.50;91.90;;;;;;5103989;28;20315;-69
2021/11/18 08:36:22;;;;;;;1.20;0.85;;;8.50;91.70;;;;;;5078526;28;20226;-68
2021/11/18 08:38:54;;;;;;;2.10;1.08;;;8.50;91.80;;;;;;5103013;28;20216;-69
2021/11/18 08:41:25;;;;;;;1.17;1.05;;;8.50;91.70;;;;;;5086107;28;20217;-69
2021/11/18 08:43:57;;;;;;;2.72;1.23;;;8.50;91.60;;;;;;5101005;28;20307;-69
2021/11/18 08:46:29;;;;;;;1.10;1.00;;;8.50;92.00;;;;;;5097907;28;20321;-69
2021/11/18 08:49:01;;;;;;;2.40;1.13;;;8.50;91.90;;;;;;5093860;28;20597;-69
2021/11/18 08:51:34;;;;;;;0.90;0.90;;;8.50;92.00;;;;;;5093425;28;20212;-69
2021/11/18 08:54:07;;;;;;;2.30;1.10;;;8.50;91.90;;;;;;5088907;28;20223;-69
2021/11/18 08:56:38;;;;;;;1.90;1.20;;;8.50;92.20;;;;;;5088816;28;20228;-69
2021/11/18 08:59:11;;;;;;;1.20;0.70;;;8.50;92.20;;;;;;5100256;28;20231;-69
2021/11/18 09:01:45;;;;;;;1.40;0.77;;;8.50;92.30;;;;;;5082054;28;20208;-68
2021/11/18 09:04:18;;;;;;;1.13;1.10;;;8.50;92.00;;;;;;5084908;28;20640;-69
2021/11/18 09:06:49;;;;;;;0.60;0.60;;;8.50;92.10;;;;;;5088119;28;20208;-69
2021/11/18 09:09:22;;;;;;;1.60;1.02;;;8.40;92.40;;;;;;5095985;28;20304;-68
2021/11/18 09:11:56;;;;;;;1.20;0.88;;;8.40;92.60;;;;;;5097515;28;20220;-69
2021/11/18 09:14:32;;;;;;;0.70;0.70;;;8.40;92.30;;;;;;5098736;28;20223;-69
2021/11/18 09:17:05;;;;;;;1.27;0.80;;;8.40;92.50;;;;;;5088443;28;20271;-69
2021/11/18 09:19:37;;;;;;;1.15;0.90;;;8.50;92.50;;;;;;5088276;28;20219;-69
2021/11/18 09:22:10;;;;;;;1.95;1.13;;;8.40;92.60;;;;;;5088763;28;20226;-69
2021/11/18 09:24:43;;;;;;;1.35;0.82;;;8.40;92.40;;;;;;5098122;28;20208;-68
2021/11/18 09:27:20;;;;;;;3.35;1.45;;;8.40;92.10;;;;;;5094296;28;20596;-69
2021/11/18 09:29:52;;;;;;;1.67;1.30;;;8.40;92.40;;;;;;5081126;28;20222;-68
2021/11/18 09:32:28;;;;;;;0.90;0.90;;;8.40;92.20;;;;;;5106601;28;20207;-68
2021/11/18 09:35:00;;;;;;;3.35;1.10;;;8.50;92.20;;;;;;5097928;28;20210;-68
2021/11/18 09:37:31;;;;;;;2.08;1.08;;;8.50;92.00;;;;;;5088637;28;20234;-69
2021/11/18 09:40:02;;;;;;;1.05;0.90;;;8.50;92.30;;;;;;5092391;28;20216;-69
2021/11/18 09:42:46;;;;;;;1.00;1.00;;;8.50;92.30;;;;;;5095504;28;20246;-68
2021/11/18 09:45:23;;;;;;;1.05;0.95;;;8.40;92.00;;;;;;5097518;28;20558;-70
2021/11/18 09:48:26;;;;;;;1.42;1.08;;;8.50;91.80;;;;;;5087949;28;20204;-69
2021/11/18 09:51:19;;;;;;;1.17;1.08;;;8.50;92.40;;;;;;5095255;28;20211;-70
2021/11/18 09:54:12;;;;;;;2.25;1.17;;;8.40;92.30;;;;;;5089103;28;20227;-69
2021/11/18 09:56:55;;;;;;;0.93;0.90;;;8.40;92.70;;;;;;5087973;28;20212;-69
2021/11/18 09:59:34;;;;;;;1.13;0.90;;;8.40;92.20;;;;;;5090369;28;20211;-70
2021/11/18 10:02:55;;;;;;;1.20;1.10;;;8.50;92.10;;;;;;5087647;28;20697;-70
2021/11/18 10:05:32;;;;;;;1.30;1.15;;;8.50;92.10;;;;;;5058101;28;20219;-70
2021/11/18 10:08:11;;;;;;;1.27;1.17;;;8.50;92.40;;;;;;5058124;28;20208;-70
2021/11/18 10:10:47;;;;;;;1.13;1.00;;;8.40;92.30;;;;;;5087336;28;20238;-70
2021/11/18 10:13:49;;;;;;;0.85;0.85;;;8.50;92.30;;;;;;5093964;28;20231;-69
2021/11/18 10:16:23;;;;;;;1.75;1.10;;;8.50;92.40;;;;;;5091796;28;20672;-70
2021/11/18 10:18:56;;;;;;;1.80;1.02;;;8.50;92.60;;;;;;5095505;28;20256;-69
2021/11/18 10:21:31;;;;;;;1.20;1.10;;;8.50;92.30;;;;;;5082430;28;20219;-72
2021/11/18 10:24:12;;;;;;;2.63;1.60;;;8.50;92.80;;;;;;5091954;28;20204;-68
2021/11/18 10:26:48;;;;;;;1.48;1.38;;;8.50;92.50;;;;;;5093597;28;20221;-72
2021/11/18 10:29:23;;;;;;;1.30;1.20;;;8.50;92.90;;;;;;5108537;28;20323;-70
2021/11/18 10:31:59;;;;;;;1.98;1.80;;;8.50;92.90;;;;;;5102835;28;20216;-69
2021/11/18 10:34:33;;;;;;;1.20;1.10;;;8.40;92.90;;;;;;5094799;28;20560;-70
2021/11/18 10:37:11;;;;;;;1.48;1.10;;;8.40;92.90;;;;;;5110931;28;20225;-68
2021/11/18 10:39:49;;;;;;;1.83;1.00;;;8.40;92.80;;;;;;5109168;28;20211;-69
2021/11/18 10:42:29;;;;;;;2.10;1.35;;;8.40;93.10;;;;;;5083997;28;20224;-70
2021/11/18 10:45:04;;;;;;;1.50;1.33;;;8.30;93.10;;;;;;5091945;28;20291;-74
2021/11/18 10:47:37;;;;;;;1.58;1.48;;;8.40;93.00;;;;;;5092300;28;20215;-69
2021/11/18 10:50:14;;;;;;;1.23;1.13;;;8.40;92.80;;;;;;5090405;28;20208;-73
2021/11/18 10:52:49;;;;;;;0.98;0.98;;;8.40;93.00;;;;;;5089076;28;20261;-72
2021/11/18 10:55:22;;;;;;;1.02;1.02;;;8.40;93.00;;;;;;5092792;28;20239;-74
2021/11/18 10:58:05;;;;;;;1.10;1.00;;;8.40;93.00;;;;;;5092948;28;20693;-72
2021/11/18 11:00:46;;;;;;;1.42;1.30;;;8.30;93.00;;;;;;5085591;28;20216;-70
2021/11/18 11:03:27;;;;;;;1.52;1.42;;;8.30;93.00;;;;;;5092693;28;20220;-73
2021/11/18 11:06:19;;;;;;;1.38;1.20;;;8.30;93.00;;;;;;5108349;28;20261;-71
2021/11/18 11:08:54;;;;;;;1.30;1.20;;;8.30;93.20;;;;;;5090948;28;20267;-70
2021/11/18 11:11:44;;;;;;;1.42;1.00;;;8.30;93.30;;;;;;5104024;28;20630;-69
2021/11/18 11:14:44;;;;;;;1.90;1.10;;;8.30;93.30;;;;;;5091489;28;20212;-70
2021/11/18 11:17:41;;;;;;;2.75;1.60;;;8.30;93.30;;;;;;5109161;28;20215;-72
2021/11/18 11:20:16;;;;;;;1.13;1.02;;;8.30;92.90;;;;;;5081494;28;20216;-70
2021/11/18 11:22:52;;;;;;;1.60;1.45;;;8.30;93.20;;;;;;5083109;28;20212;-71
2021/11/18 11:25:57;;;;;;;0.82;0.80;;;8.30;92.80;;;;;;5088056;28;20231;-69
2021/11/18 11:28:53;;;;;;;1.20;1.20;;;8.30;93.30;;;;;;5091299;28;20662;-69
2021/11/18 11:31:44;;;;;;;1.90;1.70;;;8.20;93.80;;;;;;5087887;28;20606;-70
2021/11/18 11:34:54;;;;;;;2.10;1.20;;;8.30;93.30;;;;;;5100927;28;20273;-70
2021/11/18 11:37:50;;;;;;;2.20;1.40;;;8.30;93.30;;;;;;5049864;28;20301;-69
2021/11/18 11:40:35;;;;;;;1.25;1.20;;;8.30;93.70;;;;;;5100557;28;20704;-72
2021/11/18 11:43:23;;;;;;;1.75;1.30;;;8.30;92.70;;;;;;5089002;28;20214;-72
2021/11/18 11:46:01;;;;;;;1.08;1.00;;;8.30;92.70;;;;;;5089297;28;20216;-70
2021/11/18 11:48:48;;;;;;;0.90;0.90;;;8.30;93.00;;;;;;5102650;28;20303;-73
2021/11/18 11:52:06;;;;;;;1.70;1.60;;;8.30;93.40;;;;;;5088000;28;20226;-72
2021/11/18 11:55:12;;;;;;;5.13;1.40;;;8.40;92.90;;;;;;4996881;28;20222;-74
2021/11/18 11:57:48;;;;;;;1.40;1.30;;;8.50;92.40;;;;;;5029342;28;20217;-71
2021/11/18 12:00:25;;;;;;;3.38;1.80;;;8.50;92.10;;;;;;5093005;28;20212;-69
2021/11/18 12:03:13;;;;;;;1.60;1.20;;;8.50;92.40;;;;;;5105432;28;20578;-72
2021/11/18 12:05:49;;;;;;;1.70;1.60;;;8.50;92.90;;;;;;5080940;28;20299;-71
2021/11/18 12:08:24;;;;;;;1.48;1.38;;;8.40;93.30;;;;;;5099950;28;20395;-70
2021/11/18 12:11:00;;;;;;;1.40;1.30;;;8.50;94.00;;;;;;5100378;28;20215;-69
2021/11/18 12:13:40;;;;;;;1.40;1.20;;;8.40;94.00;;;;;;5091999;28;20231;-73
2021/11/18 12:16:25;;;;;;;1.27;1.20;;;8.50;93.10;;;;;;5089649;28;20223;-69
2021/11/18 12:19:17;;;;;;;1.95;1.15;;;8.50;92.80;;;;;;5090031;28;20289;-74
2021/11/18 12:21:48;;;;;;;2.10;1.58;;;8.50;92.60;;;;;;5104738;28;20212;-69
2021/11/18 12:24:25;;;;;;;1.98;1.30;;;8.60;92.50;;;;;;5087575;28;20211;-73
2021/11/18 12:27:22;;;;;;;1.30;1.20;;;8.60;91.90;;;;;;5091509;28;20227;-71
2021/11/18 12:30:12;;;;;;;1.40;1.30;;;8.60;92.50;;;;;;5089173;28;20205;-72
2021/11/18 12:32:57;;;;;;;1.40;1.30;;;8.50;92.20;;;;;;5102881;28;20637;-72
2021/11/18 12:35:48;;;;;;;1.10;1.10;;;8.50;93.30;;;;;;5091425;28;20686;-69
2021/11/18 12:38:39;;;;;;;1.55;1.45;;;8.30;94.90;;;;;;5081718;28;20224;-70
2021/11/18 12:41:47;;;;;;;1.75;1.65;;;8.20;95.90;;;;;;5086685;28;20224;-69
2021/11/18 12:44:41;;;;;;;1.23;1.13;;;8.20;95.90;;;;;;5068096;28;20555;-70
2021/11/18 12:47:16;;;;;;;1.45;1.30;;;8.20;95.10;;;;;;5092724;28;20216;-70
2021/11/18 12:50:15;;;;;;;1.70;1.25;;;8.20;95.60;;;;;;5085060;28;20208;-72
2021/11/18 12:53:27;;;;;;;2.50;1.58;;;8.20;95.70;;;;;;5094381;28;20216;-71
2021/11/18 12:56:23;;;;;;;1.30;1.17;;;8.30;95.40;;;;;;5097570;28;20678;-70
2021/11/18 12:58:58;;;;;;;1.65;1.38;;;8.20;95.60;;;;;;5088258;28;20228;-69
2021/11/18 13:02:03;;;;;;;1.05;1.05;;;8.30;95.30;;;;;;5087530;28;20235;-70
2021/11/18 13:04:50;;;;;;;1.60;1.50;;;8.30;95.20;;;;;;5091925;28;20218;-73
2021/11/18 13:07:57;;;;;;;2.17;1.33;;;8.30;95.40;;;;;;5101889;28;20666;-69
2021/11/18 13:10:32;;;;;;;1.50;1.40;;;8.20;95.50;;;;;;5100861;28;20677;-69
2021/11/18 13:13:38;;;;;;;2.92;1.30;;;8.20;95.20;;;;;;5098928;28;20207;-72
2021/11/18 13:16:28;;;;;;;1.40;1.30;;;8.20;95.50;;;;;;5077124;28;20208;-69
2021/11/18 13:19:31;;;;;;;1.75;1.50;;;8.20;95.70;;;;;;5098172;28;20314;-70
2021/11/18 13:22:25;;;;;;;1.50;1.40;;;8.10;96.10;;;;;;5095824;28;20220;-69
2021/11/18 13:25:14;;;;;;;1.40;1.30;;;8.10;95.80;;;;;;5094952;28;20287;-69
2021/11/18 13:27:49;;;;;;;1.40;1.30;;;8.10;96.20;;;;;;5088715;28;20644;-73
2021/11/18 13:30:33;;;;;;;1.58;1.00;;;8.10;96.20;;;;;;5085845;28;20204;-69
2021/11/18 13:33:33;;;;;;;1.52;1.42;;;8.10;96.30;;;;;;5090409;28;20212;-69
2021/11/18 13:36:07;;;;;;;1.40;1.20;;;8.20;96.00;;;;;;5088331;28;20216;-70
2021/11/18 13:38:40;;;;;;;1.35;1.25;;;8.20;96.30;;;;;;5094159;28;20238;-69
2021/11/18 13:41:17;;;;;;;1.60;1.20;;;8.20;96.40;;;;;;5085296;28;20213;-69
2021/11/18 13:43:51;;;;;;;3.63;1.65;;;8.20;96.30;;;;;;5096540;28;20221;-72
2021/11/18 13:46:28;;;;;;;1.20;1.10;;;8.20;96.40;;;;;;5109632;28;20215;-70
2021/11/18 13:49:01;;;;;;;1.67;1.30;;;8.20;96.40;;;;;;5088600;28;20208;-69
2021/11/18 13:51:46;;;;;;;2.95;1.20;;;8.20;96.80;;;;;;5089175;28;20576;-69